Buj, Russia
Current Conditions -  °F | °C
As of 11:30 PM on Wednesday 22 Oct 2014 (Local Time) from UUDL Reporting Station
Clear Clear  
Wind Chill: -2°   Ceiling: Unl
Heat Index:   Visibility: 6mi
Dew Point:   Wind: 7mph
Humidity: 79%   Direction: 300°WNW
Pressure: 30.03"   Gusts: NA
Location:  58.48°N, 41.53°E
Report Text: UUDL 222030Z 30003MPS CAVOK M13/M16 Q1017 NOSIG RMK QFE75523850340
Loading
Personal Weather Stations






























Interactive Weather Map
Tropical Storm Tracking
New forecast layout! Learn more

10-Day Weather Forecast

Advertisements
Track Severe Weather on mobile